Moosonee Airport
CYMO : rendu visible

Aérodrome :











RETROUVEZ-NOUS SUR...

 
LOGIN :

S'inscrire | Disclaimer

   EN    FR    IT 

 









Légende :    VFR   VFR Marginal   IFR   IFR Intensif   IFR Très Intensif
Visi : 
Plafond : 
>= 8 km
>= 3000ft
5 à 8 km
1000 à 3000 ft
1500m à 5 km
500 à 1000 ft
800 à 1500m
200 à 500 ft
< 800m
< 200 ft
Symboles :   Orages  Brouillard  Fortes neiges  Fortes précipitations  Vent > 20 kt






- Altitude de l'aérodrome : 30 ft
- Code IATA : YMO


CYMO - Moosonee

DERNIER METAR :
  • 021400Z AUTO 36006KT 320V030 9SM SCT009 20/18 A2993 RMK SLP138 DENSITY ALT 500FT

METARs EXPIRÉS :
  • 021354Z AUTO 34006KT 9SM SCT009 19/17 A2993 RMK SLP137 DENSITY ALT 500FT
  • 021304Z AUTO 34007KT 9SM SCT005 SCT023 OVC095 18/17 A2993 RMK SLP135 DENSITY ALT 300FT
  • 021206Z AUTO 34006KT 9SM BKN005 OVC010 17/17 A2992 RMK SLP132 DENSITY ALT 200FT

TAF TAF CYMO
Valide du 02 à 12h jusqu'au 03 à 00h UTC


021140Z 0212/0224 35005KT P6SM SCT003 OVC025
TEMPO 0212/0213 BKN003 BKN025 BKN050
FM021300 01005KT P6SM SCT010 BKN100
TEMPO 0213/0216 BKN010 OVC100
BECMG 0216/0218 05008KT RMK FCST BASED ON AUTO OBS. NXT FCST BY 021800Z
FIR CZYZ / Amérique du Nord



MET'MAP, la Météo Aéronautique d'un coup d'oeil ! - Copyright ORBIFLY Décembre 2007 - Disclaimer

ORBIFLY MET'MAP TEAM :

Programmation & Développement : Alexandra Zaïnal
Sur une idée originale de : Baudouin d'Aumeries
Assistance à la programmation : Marc-Olivier Méhu
Soutien technique & logistique : Manuel Goepfert

Contact : metmap@orbifly.com




SOURCES & CREDITS :

   NOAA       Earth
Advisory